Fowler, IL

11:28 PM CDT on August 28, 2016 (GMT -0500)
Quincy Regional-Baldwin

Weather History for KUIN - September, 2012

Change the Weather History Date:

Saturday, September 1, 2012

  Actual Average Record
Temperature  
Mean Temperature 75 °F 72 °F  
Max Temperature 79 °F 82 °F 104 °F (2011)
Min Temperature 71 °F 62 °F 41 °F (1949)
Degree Days  
Heating Degree Days 0 0  
Month to date heating degree days 0  
Since 1 July heating degree days 5  
Cooling Degree Days 10 7  
Month to date cooling degree days 7  
Year to date cooling degree days 960  
Growing Degree Days 25 (Base 50)    
Moisture  
Dew Point 72 °F    
Average Humidity 92    
Maximum Humidity 100    
Minimum Humidity 74    
Precipitation  
Precipitation 0.32 in 0.11 in 1.97 in (1931)
Month to date precipitation 0.11  
Year to date precipitation 25.86  
Sea Level Pressure  
Sea Level Pressure 29.83 in    
Wind  
Wind Speed 11 mph (East)    
Max Wind Speed 21 mph    
Max Gust Speed 28 mph    
Visibility 6 miles    
Events Rain    
T = Trace of Precipitation, MM = Missing Value Source: NWS Daily Summary

Daily Weather History Graph

Daily Weather History Graph

Search for Another Location

Airport or City:

Trip Planner

Search our weather history database for the weather conditions in past years. The results will help you decide how hot, cold, wet, or windy it might be!

Date:

Astronomy

Sep. 01, 2012 Rise Set
Actual Time 6:33 AM CDT 7:35 PM CDT
Civil Twilight 6:05 AM CDT 8:03 PM CDT
Nautical Twilight 5:32 AM CDT 8:35 PM CDT
Astronomical Twilight 4:57 AM CDT 9:10 PM CDT
Moon 7:52 PM CDT (9/1) 7:40 AM CDT (9/1)
Length of Visible Light 13h 57m
Length of Day
13h 02m
Full, 99% of the Moon is Illuminated
Sep 1
Full
Sep 8
Last Quarter
Sep 15
New
Sep 22
First Quarter
Sep 29
Full

Hourly Weather History & Observations

Time (CDT) Temp. Dew Point Humidity Pressure Visibility Wind Dir Wind Speed Gust Speed Precip Events Conditions
12:01 AM 73.4 °F 71.6 °F 94% 29.91 in 1.8 mi East 13.8 mph - 0.00 in Rain Heavy Rain
12:06 AM 73.4 °F 71.6 °F 94% 29.91 in 2.0 mi East 16.1 mph 27.6 mph N/A Rain Heavy Rain
12:22 AM 73.4 °F 71.6 °F 94% 29.90 in 3.0 mi East 13.8 mph 20.7 mph N/A Rain Rain
12:29 AM 73.4 °F 71.6 °F 94% 29.90 in 1.8 mi East 15.0 mph - N/A Rain Heavy Rain
12:36 AM 73.4 °F 71.6 °F 94% 29.89 in 1.8 mi East 12.7 mph 20.7 mph N/A Rain Heavy Rain
12:47 AM 73.4 °F 71.6 °F 94% 29.88 in 2.0 mi ENE 11.5 mph 21.9 mph N/A Rain Heavy Rain
12:54 AM 73.4 °F 71.6 °F 94% 29.88 in 2.0 mi ENE 13.8 mph - N/A Rain Heavy Rain
1:11 AM 73.4 °F 71.6 °F 94% 29.88 in 1.8 mi East 11.5 mph - N/A Rain Heavy Rain
1:35 AM 73.4 °F 71.6 °F 94% 29.86 in 2.0 mi ENE 15.0 mph - N/A Rain Heavy Rain
1:54 AM 73.0 °F 71.1 °F 93% 29.83 in 7.0 mi East 20.7 mph 25.3 mph N/A Rain Light Rain
2:26 AM 73.4 °F 71.6 °F 94% 29.84 in 2.5 mi East 16.1 mph - 0.02 in Rain Rain
2:49 AM 73.4 °F 71.6 °F 94% 29.84 in 3.0 mi East 15.0 mph 20.7 mph 0.03 in Rain Rain
2:54 AM 73.0 °F 71.1 °F 93% 29.82 in 3.0 mi East 13.8 mph 21.9 mph 0.04 in Rain Light Rain
3:06 AM 73.4 °F 71.6 °F 94% 29.83 in 4.0 mi East 12.7 mph - 0.00 in Rain Light Rain
3:16 AM 73.4 °F 71.6 °F 94% 29.83 in 2.5 mi East 11.5 mph - 0.01 in Rain Light Rain
3:25 AM 73.4 °F 71.6 °F 94% 29.83 in 4.0 mi East 13.8 mph 19.6 mph 0.01 in Rain Light Rain
3:54 AM 73.0 °F 71.1 °F 93% 29.81 in 5.0 mi East 9.2 mph - 0.03 in Rain Light Rain
4:22 AM 73.4 °F 71.6 °F 94% 29.82 in 2.0 mi East 11.5 mph - 0.01 in Rain Heavy Rain
4:30 AM 73.4 °F 71.6 °F 94% 29.82 in 2.0 mi East 10.4 mph - 0.01 in Rain Heavy Rain
4:38 AM 73.4 °F 71.6 °F 94% 29.82 in 1.8 mi East 13.8 mph - 0.02 in Rain Heavy Rain
4:45 AM 73.4 °F 71.6 °F 94% 29.81 in 2.0 mi East 13.8 mph - 0.02 in Rain Heavy Rain
4:54 AM 73.4 °F 71.6 °F 94% 29.81 in 2.0 mi East 11.5 mph 18.4 mph N/A Rain Heavy Rain
5:07 AM 71.6 °F 71.6 °F 100% 29.82 in 2.0 mi ESE 9.2 mph - 0.01 in Rain Heavy Rain
5:54 AM 73.0 °F 71.1 °F 93% 29.79 in 4.0 mi SE 4.6 mph - 0.03 in Rain Light Rain
5:56 AM 73.4 °F 71.6 °F 94% 29.81 in 5.0 mi SE 3.5 mph - 0.00 in Rain Light Rain
6:11 AM 73.4 °F 71.6 °F 94% 29.81 in 10.0 mi SE 5.8 mph - 0.01 in Rain Light Rain
6:45 AM 73.4 °F 71.6 °F 94% 29.82 in 2.5 mi SSE 9.2 mph - 0.02 in Rain Light Rain
6:54 AM 73.0 °F 72.0 °F 96% 29.81 in 2.0 mi SSE 9.2 mph - 0.02 in Rain Light Rain
7:03 AM 73.4 °F 71.6 °F 94% 29.83 in 2.0 mi SSE 10.4 mph - 0.01 in Rain Light Rain
7:11 AM 73.4 °F 71.6 °F 94% 29.83 in 1.8 mi SSE 8.1 mph - 0.01 in Rain Light Rain
7:14 AM 73.4 °F 71.6 °F 94% 29.83 in 2.5 mi SSE 9.2 mph - 0.01 in Rain Light Rain
7:23 AM 73.4 °F 71.6 °F 94% 29.83 in 4.0 mi SSE 6.9 mph - 0.02 in Rain Light Rain
7:39 AM 73.4 °F 71.6 °F 94% 29.83 in 10.0 mi SSE 5.8 mph - 0.02 in   Overcast
7:54 AM 73.0 °F 71.1 °F 93% 29.82 in 10.0 mi SSE 9.2 mph - 0.03 in   Mostly Cloudy
8:02 AM 73.4 °F 71.6 °F 94% 29.84 in 10.0 mi SSE 10.4 mph - N/A   Overcast
8:15 AM 73.4 °F 71.6 °F 94% 29.84 in 10.0 mi SE 9.2 mph - 0.01 in   Overcast
8:22 AM 73.4 °F 71.6 °F 94% 29.84 in 10.0 mi SE 10.4 mph - 0.01 in   Overcast
8:35 AM 73.4 °F 71.6 °F 94% 29.84 in 10.0 mi SE 10.4 mph - 0.01 in   Overcast
8:54 AM 73.0 °F 71.1 °F 93% 29.83 in 10.0 mi SSE 9.2 mph - 0.02 in   Overcast
9:21 AM 73.4 °F 69.8 °F 88% 29.85 in 2.5 mi SSE 5.8 mph - 0.01 in Rain Light Rain
9:35 AM 71.6 °F 69.8 °F 94% 29.86 in 3.0 mi South 4.6 mph - 0.02 in Rain Light Rain
9:42 AM 71.6 °F 69.8 °F 94% 29.86 in 4.0 mi South 5.8 mph - 0.02 in Rain Light Rain
9:48 AM 71.6 °F 69.8 °F 94% 29.86 in 2.5 mi South 8.1 mph - 0.02 in Rain Light Rain
9:54 AM 71.6 °F 69.8 °F 94% 29.86 in 2.0 mi SSE 6.9 mph - N/A Rain Light Rain
10:05 AM 71.6 °F 69.8 °F 94% 29.86 in 5.0 mi SSE 6.9 mph - 0.00 in Rain Light Rain
10:41 AM 75.2 °F 71.6 °F 89% 29.86 in 10.0 mi SSE 9.2 mph - 0.02 in   Overcast
10:54 AM 75.0 °F 71.1 °F 87% 29.84 in 10.0 mi SE 9.2 mph - 0.02 in   Overcast
11:09 AM 73.4 °F 71.6 °F 94% 29.86 in 2.5 mi SE 6.9 mph - 0.00 in Rain Light Rain
11:17 AM 75.2 °F 71.6 °F 89% 29.86 in 7.0 mi ESE 8.1 mph - 0.01 in Rain Light Rain
11:25 AM 75.2 °F 71.6 °F 89% 29.86 in 10.0 mi SE 11.5 mph - 0.01 in   Overcast
11:54 AM 75.9 °F 71.1 °F 85% 29.84 in 10.0 mi SE 6.9 mph - 0.02 in   Overcast
12:11 PM 78.8 °F 71.6 °F 78% 29.85 in 10.0 mi East 6.9 mph - N/A   Overcast
12:38 PM 78.8 °F 69.8 °F 74% 29.84 in 10.0 mi East 6.9 mph - 0.01 in   Overcast
12:54 PM 79.0 °F 70.0 °F 74% 29.82 in 10.0 mi ENE 8.1 mph - 0.02 in   Overcast
1:11 PM 77.0 °F 69.8 °F 78% 29.84 in 10.0 mi ENE 6.9 mph - N/A   Overcast
1:38 PM 75.2 °F 71.6 °F 89% 29.84 in 3.0 mi ESE 9.2 mph - 0.01 in Rain Light Rain
1:54 PM 75.9 °F 72.0 °F 87% 29.81 in 10.0 mi ENE 4.6 mph - 0.02 in   Overcast
2:38 PM 77.0 °F 71.6 °F 83% 29.82 in 2.5 mi East 8.1 mph - 0.01 in Rain Rain
2:41 PM 75.2 °F 71.6 °F 89% 29.82 in 1.8 mi ENE 8.1 mph - 0.01 in Rain Heavy Rain
2:50 PM 75.2 °F 71.6 °F 89% 29.82 in 2.0 mi ENE 9.2 mph - 0.01 in Rain Rain
2:54 PM 75.0 °F 72.0 °F 90% 29.80 in 1.5 mi ENE 6.9 mph - 0.01 in Rain Rain
3:03 PM 75.2 °F 73.4 °F 94% 29.81 in 3.0 mi NE 3.5 mph - 0.00 in Rain Light Rain
3:54 PM 75.9 °F 73.0 °F 91% 29.78 in 5.0 mi Variable 4.6 mph - 0.02 in Rain Light Rain
3:56 PM 75.2 °F 73.4 °F 94% 29.80 in 3.0 mi ESE 5.8 mph - 0.00 in Rain Light Rain
4:30 PM 75.2 °F 73.4 °F 94% 29.79 in 2.5 mi NE 8.1 mph - 0.00 in Rain Light Rain
4:38 PM 75.2 °F 73.4 °F 94% 29.79 in 2.5 mi NNE 9.2 mph - 0.00 in Rain Light Rain
4:41 PM 75.2 °F 73.4 °F 94% 29.79 in 3.0 mi NE 10.4 mph - 0.00 in Rain Light Rain
4:46 PM 75.2 °F 73.4 °F 94% 29.79 in 1.8 mi NE 8.1 mph - 0.01 in Rain Rain
4:54 PM 75.2 °F 71.6 °F 89% 29.79 in 1.8 mi NE 5.8 mph - N/A Rain Light Rain
4:57 PM 75.2 °F 73.4 °F 94% 29.79 in 3.0 mi NNE 5.8 mph - 0.00 in Rain Light Rain
5:13 PM 75.2 °F 73.4 °F 94% 29.79 in 10.0 mi NNE 6.9 mph - 0.00 in   Overcast
5:21 PM 75.2 °F 73.4 °F 94% 29.79 in 10.0 mi NE 5.8 mph - 0.00 in   Overcast
5:47 PM 77.0 °F 73.4 °F 89% 29.79 in 10.0 mi NE 11.5 mph - 0.00 in   Mostly Cloudy
5:54 PM 77.0 °F 73.0 °F 88% 29.77 in 10.0 mi NE 10.4 mph - 0.01 in   Mostly Cloudy
6:27 PM 75.2 °F 71.6 °F 89% 29.79 in 10.0 mi NE 9.2 mph - N/A   Overcast
6:54 PM 75.9 °F 72.0 °F 87% 29.77 in 10.0 mi ENE 5.8 mph - N/A   Overcast
7:12 PM 75.2 °F 71.6 °F 89% 29.79 in 10.0 mi NE 3.5 mph - 0.01 in   Overcast
7:35 PM 75.2 °F 71.6 °F 89% 29.79 in 10.0 mi NNE 5.8 mph - 0.01 in   Overcast
7:54 PM 73.9 °F 71.1 °F 91% 29.78 in 10.0 mi NNE 3.5 mph - 0.01 in   Overcast
8:13 PM 73.4 °F 71.6 °F 94% 29.80 in 10.0 mi NE 3.5 mph - N/A   Overcast
8:30 PM 73.4 °F 71.6 °F 94% 29.81 in 10.0 mi ENE 4.6 mph - N/A   Overcast
8:54 PM 73.4 °F 71.6 °F 94% 29.81 in 10.0 mi ENE 6.9 mph - N/A   Overcast
9:26 PM 73.4 °F 71.6 °F 94% 29.82 in 8.0 mi ENE 4.6 mph - 0.01 in   Overcast
9:54 PM 73.9 °F 72.0 °F 93% 29.81 in 10.0 mi NNE 9.2 mph - 0.01 in   Overcast
10:54 PM 73.4 °F 71.6 °F 94% 29.83 in 8.0 mi NE 10.4 mph - N/A   Overcast
11:54 PM 73.0 °F 71.1 °F 93% 29.81 in 10.0 mi NNE 6.9 mph - 0.01 in   Overcast